createdAt,value
2023-02-08T00:00:53.368Z,84.20
2023-02-08T00:03:20.671Z,84.40
2023-02-08T00:05:48.008Z,84.60
2023-02-08T00:08:15.534Z,84.80
2023-02-08T00:10:43.601Z,84.90
2023-02-08T00:13:11.829Z,85.00
2023-02-08T00:15:43.664Z,85.10
2023-02-08T00:18:11.054Z,85.50
2023-02-08T00:20:40.037Z,85.60
2023-02-08T00:23:07.472Z,85.70
2023-02-08T00:25:35.083Z,85.90
2023-02-08T00:28:04.656Z,86.10
2023-02-08T00:30:32.793Z,86.30
2023-02-08T00:33:01.228Z,86.30
2023-02-08T00:35:29.515Z,86.40
2023-02-08T00:37:57.433Z,86.50
2023-02-08T00:40:25.560Z,86.80
2023-02-08T00:42:53.024Z,86.70
2023-02-08T00:45:20.591Z,86.90
2023-02-08T00:47:47.806Z,87.10
2023-02-08T00:50:15.032Z,87.30
2023-02-08T00:52:42.380Z,87.50
2023-02-08T00:55:11.503Z,87.80
2023-02-08T00:57:38.796Z,87.90
2023-02-08T01:00:06.818Z,88.10
2023-02-08T01:02:34.090Z,88.30
2023-02-08T01:05:01.326Z,88.50
2023-02-08T01:07:28.657Z,88.60
2023-02-08T01:09:56.677Z,88.70
2023-02-08T01:12:24.952Z,88.60
2023-02-08T01:14:52.268Z,88.80
2023-02-08T01:17:19.573Z,88.90
2023-02-08T01:19:48.037Z,89.20
2023-02-08T01:22:15.249Z,89.40
2023-02-08T01:24:42.578Z,89.50
2023-02-08T01:27:09.830Z,89.70
2023-02-08T01:29:37.184Z,89.70
2023-02-08T01:32:04.664Z,89.90
2023-02-08T01:34:32.142Z,90.00
2023-02-08T01:36:59.378Z,90.00
2023-02-08T01:39:26.699Z,90.10
2023-02-08T01:41:53.927Z,90.20
2023-02-08T01:44:58.926Z,90.30
2023-02-08T01:47:27.028Z,90.40
2023-02-08T01:49:54.689Z,90.50
2023-02-08T01:52:25.431Z,90.60
2023-02-08T01:55:19.390Z,90.80
2023-02-08T01:57:48.047Z,90.80
2023-02-08T02:00:23.577Z,90.90
2023-02-08T02:02:53.674Z,91.00
2023-02-08T02:05:23.944Z,91.10
2023-02-08T02:07:53.041Z,91.10
2023-02-08T02:10:32.229Z,91.30
2023-02-08T02:13:11.290Z,91.40
2023-02-08T02:15:44.206Z,91.40
2023-02-08T02:18:13.393Z,91.40
2023-02-08T02:20:59.626Z,91.50
2023-02-08T02:23:36.542Z,91.50
2023-02-08T02:26:35.044Z,91.50
2023-02-08T02:29:36.989Z,91.60
2023-02-08T02:32:13.745Z,91.80
2023-02-08T02:34:52.927Z,91.80
2023-02-08T02:37:38.284Z,91.90
2023-02-08T02:40:31.793Z,92.00
2023-02-08T02:43:41.623Z,92.20
2023-02-08T02:46:35.263Z,92.30
2023-02-08T02:49:09.431Z,92.50
2023-02-08T02:51:57.788Z,92.50
2023-02-08T02:54:31.765Z,92.60
2023-02-08T02:57:10.345Z,92.60
2023-02-08T02:59:39.540Z,92.80
2023-02-08T03:02:06.733Z,92.60
2023-02-08T03:04:34.128Z,92.60
2023-02-08T03:07:28.270Z,92.70
2023-02-08T03:10:17.162Z,92.80
2023-02-08T03:13:09.534Z,92.80
2023-02-08T03:16:14.739Z,92.90
2023-02-08T03:19:04.802Z,92.90
2023-02-08T03:21:35.010Z,93.10
2023-02-08T03:24:09.741Z,93.10
2023-02-08T03:26:50.327Z,93.20
2023-02-08T03:29:58.972Z,93.30
2023-02-08T03:32:32.365Z,93.40
2023-02-08T03:35:11.217Z,93.50
2023-02-08T03:37:50.096Z,93.50
2023-02-08T03:40:24.344Z,93.50
2023-02-08T03:42:55.932Z,93.60
2023-02-08T03:45:29.581Z,93.50
2023-02-08T03:47:59.494Z,93.50
2023-02-08T03:50:28.865Z,93.50
2023-02-08T03:52:56.881Z,93.60
2023-02-08T03:55:32.344Z,93.70
2023-02-08T03:58:07.505Z,93.70
2023-02-08T04:00:40.742Z,93.80
2023-02-08T04:03:19.623Z,93.90
2023-02-08T04:05:48.075Z,93.90
2023-02-08T04:08:16.247Z,93.80
2023-02-08T04:10:44.648Z,93.80
2023-02-08T04:13:12.225Z,93.80
2023-02-08T04:15:39.693Z,93.80
2023-02-08T04:18:07.232Z,93.80
2023-02-08T04:20:34.710Z,93.80
2023-02-08T04:23:02.210Z,93.90
2023-02-08T04:25:29.834Z,94.00
2023-02-08T04:27:57.164Z,93.90
2023-02-08T04:30:24.382Z,94.10
2023-02-08T04:32:51.607Z,94.20
2023-02-08T04:35:18.842Z,94.20
2023-02-08T04:37:46.801Z,94.20
2023-02-08T04:40:14.013Z,94.40
2023-02-08T04:42:41.242Z,94.40
2023-02-08T04:45:09.283Z,94.30
2023-02-08T04:47:36.633Z,94.30
2023-02-08T04:50:04.526Z,94.50
2023-02-08T04:52:31.758Z,94.50
2023-02-08T04:54:59.051Z,94.50
2023-02-08T04:57:26.406Z,94.40
2023-02-08T04:59:53.697Z,94.40
2023-02-08T05:02:21.046Z,94.20
2023-02-08T05:04:48.318Z,94.50
2023-02-08T05:07:15.538Z,94.10
2023-02-08T05:09:42.873Z,94.00
2023-02-08T05:12:10.066Z,94.00
2023-02-08T05:14:37.384Z,93.80
2023-02-08T05:17:04.785Z,93.80
2023-02-08T05:19:32.083Z,93.80
2023-02-08T05:21:59.359Z,93.90
2023-02-08T05:24:27.871Z,94.00
2023-02-08T05:26:55.163Z,94.10
2023-02-08T05:29:22.361Z,94.30
2023-02-08T05:31:49.741Z,94.30
2023-02-08T05:34:17.054Z,94.30
2023-02-08T05:36:44.305Z,94.30
2023-02-08T05:39:11.520Z,94.50
2023-02-08T05:41:38.805Z,94.60
2023-02-08T05:44:06.040Z,94.60
2023-02-08T05:46:33.274Z,94.60
2023-02-08T05:49:00.595Z,94.50
2023-02-08T05:51:28.049Z,94.50
2023-02-08T05:53:55.380Z,94.50
2023-02-08T05:56:22.704Z,94.50
2023-02-08T05:58:49.906Z,94.50
2023-02-08T06:01:17.198Z,94.50
2023-02-08T06:03:44.504Z,94.40
2023-02-08T06:06:11.859Z,94.40
2023-02-08T06:08:40.013Z,94.30
2023-02-08T06:11:07.410Z,94.40
2023-02-08T06:13:34.866Z,94.40
2023-02-08T06:16:02.359Z,94.50
2023-02-08T06:18:29.656Z,94.50
2023-02-08T06:20:57.244Z,94.60
2023-02-08T06:23:24.994Z,94.50
2023-02-08T06:25:52.605Z,94.50
2023-02-08T06:28:19.911Z,94.40
2023-02-08T06:30:50.200Z,94.20
2023-02-08T06:33:18.214Z,94.20
2023-02-08T06:35:51.880Z,94.10
2023-02-08T06:38:19.737Z,94.10
2023-02-08T06:40:48.196Z,93.80
2023-02-08T06:43:15.996Z,93.80
2023-02-08T06:45:46.695Z,93.70
2023-02-08T06:48:14.574Z,93.60
2023-02-08T06:50:42.240Z,93.20
2023-02-08T06:53:09.696Z,93.20
2023-02-08T06:55:36.988Z,93.10
2023-02-08T06:58:04.266Z,93.00
2023-02-08T07:00:31.612Z,92.90
2023-02-08T07:03:00.651Z,92.80
2023-02-08T07:05:28.065Z,92.80
2023-02-08T07:07:55.261Z,92.80
2023-02-08T07:10:23.672Z,92.70
2023-02-08T07:12:51.078Z,92.50
2023-02-08T07:15:18.439Z,92.40
2023-02-08T07:17:45.765Z,92.30
2023-02-08T07:20:13.820Z,92.30
2023-02-08T07:22:41.487Z,92.30
2023-02-08T07:25:09.660Z,92.40
2023-02-08T07:27:36.921Z,92.30
2023-02-08T07:30:04.981Z,92.30
2023-02-08T07:32:34.714Z,92.30
2023-02-08T07:35:02.291Z,92.30
2023-02-08T07:37:29.581Z,92.30
2023-02-08T07:39:56.960Z,92.30
2023-02-08T07:42:24.184Z,92.30
2023-02-08T07:45:06.402Z,92.30
2023-02-08T07:47:33.715Z,92.30
2023-02-08T07:50:01.000Z,92.30
2023-02-08T07:52:28.974Z,92.30
2023-02-08T07:54:56.354Z,92.20
2023-02-08T07:57:23.623Z,92.20
2023-02-08T07:59:52.532Z,92.10
2023-02-08T08:02:21.058Z,92.00
2023-02-08T08:04:48.437Z,92.00
2023-02-08T08:07:15.782Z,91.90
2023-02-08T08:09:43.038Z,91.80
2023-02-08T08:12:10.258Z,91.70
2023-02-08T08:14:38.036Z,91.60
2023-02-08T08:17:05.316Z,91.40
2023-02-08T08:19:32.566Z,91.40
2023-02-08T08:22:00.052Z,91.40
2023-02-08T08:24:27.436Z,91.40
2023-02-08T08:26:54.710Z,91.20
2023-02-08T08:29:22.018Z,91.20
2023-02-08T08:31:49.637Z,91.10
2023-02-08T08:34:17.169Z,90.70
2023-02-08T08:36:44.603Z,90.50
2023-02-08T08:39:11.938Z,90.40
2023-02-08T08:41:39.147Z,89.90
2023-02-08T08:44:06.369Z,89.50
2023-02-08T08:46:33.629Z,89.30
2023-02-08T08:49:01.019Z,88.70
2023-02-08T08:51:28.411Z,88.70
2023-02-08T08:53:55.704Z,88.20
2023-02-08T08:56:22.972Z,88.00
2023-02-08T08:58:50.223Z,87.80
2023-02-08T09:01:17.562Z,87.00
2023-02-08T09:03:44.955Z,87.10
2023-02-08T09:06:12.537Z,86.60
2023-02-08T09:08:39.869Z,86.30
2023-02-08T09:11:15.244Z,86.20
2023-02-08T09:13:43.086Z,86.30
2023-02-08T09:16:14.151Z,86.30
2023-02-08T09:18:41.868Z,85.70
2023-02-08T09:21:15.373Z,85.50
2023-02-08T09:23:43.735Z,85.30
2023-02-08T09:26:12.845Z,84.90
2023-02-08T09:28:40.280Z,84.00
2023-02-08T09:31:08.696Z,84.10
2023-02-08T09:33:36.028Z,83.70
2023-02-08T09:36:03.601Z,83.60
2023-02-08T09:38:32.823Z,83.30
2023-02-08T09:41:29.773Z,82.50
2023-02-08T09:44:28.119Z,82.20
2023-02-08T09:47:03.778Z,82.10
2023-02-08T09:49:36.082Z,82.10
2023-02-08T09:52:11.084Z,82.50
2023-02-08T09:55:01.468Z,81.90
2023-02-08T09:57:34.782Z,81.20
2023-02-08T10:00:12.702Z,81.00
2023-02-08T10:02:41.721Z,81.20
2023-02-08T10:05:27.182Z,81.30
2023-02-08T10:07:58.519Z,81.50
2023-02-08T10:11:08.192Z,80.50
2023-02-08T10:14:07.812Z,80.30
2023-02-08T10:17:04.317Z,80.60
2023-02-08T10:19:45.688Z,79.10
2023-02-08T10:22:19.264Z,76.70
2023-02-08T10:25:15.145Z,76.50
2023-02-08T10:28:24.780Z,76.60
2023-02-08T10:30:58.175Z,76.20
2023-02-08T10:33:52.006Z,75.30
2023-02-08T10:36:24.563Z,74.90
2023-02-08T10:39:01.254Z,75.00
2023-02-08T10:41:40.517Z,74.80
2023-02-08T10:44:44.060Z,74.60
2023-02-08T10:47:43.090Z,74.70
2023-02-08T10:50:21.874Z,74.90
2023-02-08T10:52:51.934Z,74.90
2023-02-08T10:55:28.534Z,75.20
2023-02-08T10:58:05.972Z,75.90
2023-02-08T11:00:40.607Z,76.20
2023-02-08T11:03:43.383Z,75.80
2023-02-08T11:06:29.154Z,76.20
2023-02-08T11:08:58.963Z,75.40
2023-02-08T11:11:30.080Z,74.70
2023-02-08T11:14:11.447Z,74.60
2023-02-08T11:16:39.423Z,74.50
2023-02-08T11:19:11.780Z,74.50
2023-02-08T11:21:47.048Z,73.60
2023-02-08T11:24:42.040Z,72.80
2023-02-08T11:27:31.826Z,71.80
2023-02-08T11:30:15.930Z,70.70
2023-02-08T11:32:46.290Z,70.50
2023-02-08T11:35:35.197Z,70.50
2023-02-08T11:40:48.427Z,70.50
2023-02-08T11:43:42.605Z,69.70
2023-02-08T11:46:11.313Z,70.30
2023-02-08T11:48:43.737Z,70.20
2023-02-08T11:51:22.559Z,70.30
2023-02-08T11:53:49.807Z,70.60
2023-02-08T11:56:21.425Z,69.50
2023-02-08T11:59:06.662Z,68.40
2023-02-08T12:01:58.849Z,67.80
2023-02-08T12:04:26.484Z,66.40
2023-02-08T12:07:32.209Z,66.40
2023-02-08T12:10:20.593Z,64.40
2023-02-08T12:13:22.889Z,64.90
2023-02-08T12:16:07.201Z,65.30
2023-02-08T12:18:43.774Z,64.70
2023-02-08T12:21:43.464Z,64.10
2023-02-08T12:24:52.630Z,63.80
2023-02-08T12:27:27.547Z,63.10
2023-02-08T12:30:27.574Z,63.40
2023-02-08T12:33:29.610Z,63.10
2023-02-08T12:36:26.461Z,62.90
2023-02-08T12:39:25.990Z,63.00
2023-02-08T12:41:58.392Z,63.10
2023-02-08T12:44:34.690Z,62.20
2023-02-08T12:47:26.088Z,62.70
2023-02-08T12:50:11.631Z,62.10
2023-02-08T12:52:44.001Z,62.30
2023-02-08T12:55:20.249Z,60.40
2023-02-08T12:58:15.942Z,60.60
2023-02-08T13:00:44.559Z,60.70
2023-02-08T13:03:15.234Z,60.20
2023-02-08T13:06:01.657Z,59.70
2023-02-08T13:08:59.379Z,60.20
2023-02-08T13:11:35.877Z,59.40
2023-02-08T13:14:11.308Z,58.50
2023-02-08T13:16:45.741Z,58.90
2023-02-08T13:19:45.701Z,57.30
2023-02-08T13:22:22.619Z,57.90
2023-02-08T13:25:05.029Z,58.20
2023-02-08T13:27:34.030Z,57.80
2023-02-08T13:30:01.909Z,57.20
2023-02-08T13:32:35.164Z,57.80
2023-02-08T13:35:13.603Z,57.80
2023-02-08T13:37:42.402Z,58.40
2023-02-08T13:40:28.831Z,58.20
2023-02-08T13:43:20.866Z,56.80
2023-02-08T13:45:59.020Z,56.10
2023-02-08T13:48:27.304Z,55.90
2023-02-08T13:50:56.884Z,56.40
2023-02-08T13:53:41.532Z,56.70
2023-02-08T13:56:13.708Z,56.20
2023-02-08T13:58:50.638Z,55.30
2023-02-08T14:01:17.866Z,55.40
2023-02-08T14:04:08.150Z,55.40
2023-02-08T14:06:56.372Z,55.50
2023-02-08T14:09:38.774Z,55.40
2023-02-08T14:12:16.842Z,55.00
2023-02-08T14:15:04.294Z,55.10
2023-02-08T14:17:32.032Z,55.20
2023-02-08T14:20:03.104Z,55.00
2023-02-08T14:22:39.411Z,55.10
2023-02-08T14:25:17.970Z,55.60
2023-02-08T14:28:00.277Z,55.20
2023-02-08T14:30:35.110Z,55.70
2023-02-08T14:33:07.280Z,56.40
2023-02-08T14:35:42.195Z,56.50
2023-02-08T14:38:19.310Z,57.00
2023-02-08T14:40:53.634Z,56.60
2023-02-08T14:43:20.987Z,56.50
2023-02-08T14:45:51.191Z,56.00
2023-02-08T14:48:21.729Z,56.20
2023-02-08T14:51:09.706Z,55.90
2023-02-08T14:53:57.325Z,56.30
2023-02-08T14:56:29.625Z,56.70
2023-02-08T14:59:04.984Z,57.10
2023-02-08T15:01:44.501Z,56.70
2023-02-08T15:04:13.547Z,56.30
2023-02-08T15:06:50.220Z,55.40
2023-02-08T15:09:29.822Z,55.60
2023-02-08T15:12:05.601Z,55.30
2023-02-08T15:14:36.258Z,55.00
2023-02-08T15:17:04.076Z,54.40
2023-02-08T15:19:40.459Z,54.40
2023-02-08T15:22:24.301Z,54.40
2023-02-08T15:25:01.526Z,54.60
2023-02-08T15:27:32.452Z,54.50
2023-02-08T15:30:00.594Z,54.00
2023-02-08T15:32:29.332Z,53.50
2023-02-08T15:34:59.550Z,53.70
2023-02-08T15:37:30.757Z,53.60
2023-02-08T15:39:59.362Z,53.40
2023-02-08T15:42:35.204Z,53.30
2023-02-08T15:45:04.470Z,53.50
2023-02-08T15:47:37.940Z,53.80
2023-02-08T15:50:07.868Z,53.60
2023-02-08T15:52:37.213Z,53.80
2023-02-08T15:55:07.910Z,54.10
2023-02-08T15:57:35.287Z,54.40
2023-02-08T16:00:14.903Z,54.10
2023-02-08T16:02:43.063Z,53.70
2023-02-08T16:05:27.502Z,53.80
2023-02-08T16:07:55.438Z,53.40
2023-02-08T16:10:36.792Z,53.70
2023-02-08T16:13:13.702Z,53.80
2023-02-08T16:15:43.466Z,54.20
2023-02-08T16:18:40.787Z,54.70
2023-02-08T16:21:41.829Z,54.50
2023-02-08T16:24:12.353Z,54.50
2023-02-08T16:26:46.920Z,54.50
2023-02-08T16:29:41.035Z,54.40
2023-02-08T16:32:23.164Z,54.50
2023-02-08T16:34:50.935Z,54.90
2023-02-08T16:37:33.673Z,55.00
2023-02-08T16:40:03.843Z,55.40
2023-02-08T16:42:42.781Z,55.30
2023-02-08T16:45:22.965Z,55.30
2023-02-08T16:47:58.298Z,55.40
2023-02-08T16:50:28.527Z,55.70
2023-02-08T16:53:03.393Z,55.70
2023-02-08T16:55:33.720Z,56.00
2023-02-08T16:58:01.391Z,56.00
2023-02-08T17:00:35.259Z,56.30
2023-02-08T17:03:02.792Z,56.60
2023-02-08T17:05:34.767Z,56.70
2023-02-08T17:08:06.781Z,56.80
2023-02-08T17:10:34.141Z,57.20
2023-02-08T17:13:18.808Z,57.40
2023-02-08T17:15:48.961Z,57.60
2023-02-08T17:18:16.365Z,58.00
2023-02-08T17:20:43.757Z,58.10
2023-02-08T17:23:11.556Z,58.10
2023-02-08T17:25:39.525Z,58.20
2023-02-08T17:28:17.147Z,58.90
2023-02-08T17:30:46.864Z,58.80
2023-02-08T17:33:20.525Z,58.80
2023-02-08T17:35:50.516Z,59.00
2023-02-08T17:38:19.330Z,59.30
2023-02-08T17:40:47.377Z,59.60
2023-02-08T17:43:15.026Z,59.50
2023-02-08T17:45:44.180Z,59.30
2023-02-08T17:48:15.552Z,59.60
2023-02-08T17:50:46.517Z,59.80
2023-02-08T17:53:14.269Z,60.00
2023-02-08T17:55:45.940Z,60.00
2023-02-08T17:58:13.881Z,60.20
2023-02-08T18:00:41.483Z,60.20
2023-02-08T18:03:09.133Z,60.50
2023-02-08T18:05:37.530Z,60.60
2023-02-08T18:08:05.204Z,60.90
2023-02-08T18:10:32.767Z,60.90
2023-02-08T18:13:03.001Z,61.00
2023-02-08T18:15:30.359Z,60.80
2023-02-08T18:17:57.717Z,61.00
2023-02-08T18:20:25.390Z,60.90
2023-02-08T18:22:52.873Z,61.20
2023-02-08T18:25:20.624Z,61.50
2023-02-08T18:27:48.638Z,61.70
2023-02-08T18:30:17.995Z,61.70
2023-02-08T18:32:45.374Z,61.80
2023-02-08T18:35:13.031Z,62.00
2023-02-08T18:37:43.438Z,62.20
2023-02-08T18:40:11.883Z,62.20
2023-02-08T18:42:39.198Z,62.20
2023-02-08T18:45:08.239Z,62.30
2023-02-08T18:47:36.987Z,62.50
2023-02-08T18:50:04.506Z,62.50
2023-02-08T18:52:31.968Z,62.70
2023-02-08T18:54:59.309Z,62.90
2023-02-08T18:57:26.817Z,63.00
2023-02-08T18:59:54.272Z,63.20
2023-02-08T19:02:23.344Z,63.40
2023-02-08T19:04:50.791Z,64.30
2023-02-08T19:07:18.178Z,64.40
2023-02-08T19:09:45.588Z,63.70
2023-02-08T19:12:15.642Z,63.90
2023-02-08T19:14:44.106Z,64.10
2023-02-08T19:17:14.637Z,64.00
2023-02-08T19:19:42.464Z,63.90
2023-02-08T19:22:10.241Z,64.00
2023-02-08T19:24:37.658Z,63.80
2023-02-08T19:27:05.042Z,63.80
2023-02-08T19:29:34.460Z,64.10
2023-02-08T19:32:01.932Z,63.70
2023-02-08T19:34:29.397Z,63.90
2023-02-08T19:36:56.899Z,64.10
2023-02-08T19:39:26.182Z,64.20
2023-02-08T19:41:54.094Z,64.20
2023-02-08T19:44:21.830Z,65.00
2023-02-08T19:46:51.247Z,64.50
2023-02-08T19:49:18.870Z,64.40
2023-02-08T19:51:46.809Z,64.40
2023-02-08T19:54:17.469Z,64.60
2023-02-08T19:56:45.904Z,64.80
2023-02-08T19:59:26.309Z,65.00
2023-02-08T20:01:54.840Z,65.00
2023-02-08T20:04:22.256Z,65.10
2023-02-08T20:06:53.852Z,65.10
2023-02-08T20:09:21.255Z,65.10
2023-02-08T20:11:56.917Z,65.20
2023-02-08T20:14:26.737Z,65.30
2023-02-08T20:16:54.276Z,65.50
2023-02-08T20:19:21.705Z,65.80
2023-02-08T20:21:49.133Z,65.90
2023-02-08T20:24:16.659Z,66.10
2023-02-08T20:26:45.916Z,66.10
2023-02-08T20:29:14.376Z,66.00
2023-02-08T20:31:44.154Z,66.10
2023-02-08T20:34:14.617Z,66.10
2023-02-08T20:37:05.307Z,66.30
2023-02-08T20:39:35.652Z,66.40
2023-02-08T20:42:03.830Z,66.40
2023-02-08T20:44:34.926Z,66.50
2023-02-08T20:47:03.093Z,66.60
2023-02-08T20:49:32.451Z,66.70
2023-02-08T20:52:00.178Z,67.00
2023-02-08T20:54:27.608Z,67.10
2023-02-08T20:56:59.729Z,67.20
2023-02-08T20:59:28.657Z,67.50
2023-02-08T21:01:56.631Z,67.70
2023-02-08T21:04:25.330Z,67.80
2023-02-08T21:06:52.927Z,67.90
2023-02-08T21:09:21.094Z,68.10
2023-02-08T21:11:49.728Z,68.00
2023-02-08T21:14:20.867Z,68.20
2023-02-08T21:16:51.729Z,68.20
2023-02-08T21:19:20.825Z,68.20
2023-02-08T21:21:59.408Z,68.40
2023-02-08T21:24:27.787Z,68.30
2023-02-08T21:26:56.257Z,68.50
2023-02-08T21:29:24.079Z,68.50
2023-02-08T21:31:54.417Z,68.50
2023-02-08T21:34:22.413Z,68.60
2023-02-08T21:36:49.784Z,68.60
2023-02-08T21:39:17.398Z,68.60
2023-02-08T21:41:45.045Z,68.70
2023-02-08T21:44:12.483Z,68.80
2023-02-08T21:46:39.856Z,68.90
2023-02-08T21:49:25.563Z,69.00
2023-02-08T21:52:11.256Z,69.00
2023-02-08T21:54:41.886Z,69.00
2023-02-08T21:57:09.106Z,69.00
2023-02-08T21:59:39.284Z,69.00
2023-02-08T22:02:28.584Z,69.10
2023-02-08T22:04:57.986Z,69.20
2023-02-08T22:07:26.040Z,69.30
2023-02-08T22:09:53.646Z,69.30
2023-02-08T22:12:23.146Z,69.20
2023-02-08T22:14:51.041Z,69.30
2023-02-08T22:17:18.750Z,69.40
2023-02-08T22:19:46.266Z,69.30
2023-02-08T22:22:13.662Z,69.40
2023-02-08T22:24:41.417Z,69.40
2023-02-08T22:27:11.962Z,69.60
2023-02-08T22:29:39.357Z,69.90
2023-02-08T22:32:08.225Z,69.80
2023-02-08T22:34:37.910Z,70.00
2023-02-08T22:37:05.493Z,70.00
2023-02-08T22:39:34.161Z,70.10
2023-02-08T22:42:07.989Z,70.00
2023-02-08T22:44:36.181Z,70.20
2023-02-08T22:47:06.587Z,70.30
2023-02-08T22:49:34.533Z,70.50
2023-02-08T22:52:02.654Z,70.60
2023-02-08T22:54:29.996Z,70.70
2023-02-08T22:56:57.520Z,70.70
2023-02-08T22:59:24.833Z,70.80
2023-02-08T23:01:52.389Z,70.90
2023-02-08T23:04:19.761Z,71.00
2023-02-08T23:06:48.035Z,70.90
2023-02-08T23:09:15.356Z,71.00
2023-02-08T23:11:42.808Z,71.10
2023-02-08T23:14:10.436Z,71.20
2023-02-08T23:16:38.142Z,71.30
2023-02-08T23:19:05.629Z,71.30
2023-02-08T23:21:33.227Z,71.30
2023-02-08T23:24:00.510Z,71.40
2023-02-08T23:26:27.891Z,71.40
2023-02-08T23:28:55.188Z,71.40
2023-02-08T23:31:22.897Z,71.50
2023-02-08T23:33:50.460Z,71.70
2023-02-08T23:36:21.972Z,71.80
2023-02-08T23:38:50.396Z,71.90
2023-02-08T23:41:20.607Z,71.80
2023-02-08T23:43:50.079Z,71.80
2023-02-08T23:46:25.835Z,71.90
2023-02-08T23:48:53.475Z,72.00
2023-02-08T23:51:23.251Z,72.10
2023-02-08T23:53:55.217Z,72.10
2023-02-08T23:56:24.138Z,72.20
2023-02-08T23:58:53.467Z,72.40
